^^
Meteo Knjazevac Station Historical Data
Daily Summary for January 4, 2022 Units:  Both    English   Metric
Daily Weekly Monthly Yearly Custom
  High: Low: Average:
Temperature: 93.6 °F /  34.2 °C 57.7 °F /  14.3 °C 78.4 °F /  25.8 °C
Dew Point: 66.2 °F /  19 °C 55.7 °F /  13.2 °C 61.1 °F /  16.2 °C
Humidity: 94% 33.7% 59%
Wind Speed: 12.3mph /  19.8km/h - 4.4mph /  7.1km/h
Wind Gust: 16mph /  25.7km/h - -
Wind- - South
Pressure: 30.10 in /  1019.2 hPa 30.00 in /  1015.8 hPa -
Precipitation: 0.00 in /  0 mm    
Historical Graphs
 
 
Tabular Data for January 4, 2022
Time Temperature Dew Point Pressure Wind Wind Speed Wind Gust Humidity Rainfall Rate (Hourly) solar Conditions
00:00 66.7 °F /  19.3 °C 59.7 °F /  15.4 °C 30.06in /  1017.8hPa NW 1mph /  1.6km/h 2mph /  3.2km/h 78% 0.00in /  0mm 0 W/m2
00:10 66.4 °F /  19.1 °C 59.7 °F /  15.4 °C 30.06in /  1017.8hPa Calm   2mph /  3.2km/h 79% 0.00in /  0mm 0 W/m2
00:20 66 °F /  18.9 °C 59.3 °F /  15.2 °C 30.06in /  1017.8hPa Calm   2mph /  3.2km/h 79% 0.00in /  0mm 0 W/m2
00:30 65.3 °F /  18.5 °C 59 °F /  15 °C 30.06in /  1017.8hPa WNW 1mph /  1.6km/h 2mph /  3.2km/h 80% 0.00in /  0mm 0 W/m2
00:40 64.9 °F /  18.3 °C 59 °F /  15 °C 30.06in /  1017.8hPa Calm   2mph /  3.2km/h 81% 0.00in /  0mm 0 W/m2
01:00 64.8 °F /  18.2 °C 58.8 °F /  14.9 °C 30.06in /  1017.8hPa WNW 2mph /  3.2km/h 3mph /  4.8km/h 81% 0.00in /  0mm 0 W/m2
01:10 64.9 °F /  18.3 °C 58.6 °F /  14.8 °C 30.06in /  1017.8hPa NW 1mph /  1.6km/h 3mph /  4.8km/h 80% 0.00in /  0mm 0 W/m2
01:20 65.1 °F /  18.4 °C 59.1 °F /  15.1 °C 30.06in /  1017.8hPa Calm   3mph /  4.8km/h 81% 0.00in /  0mm 0 W/m2
01:30 64.9 °F /  18.3 °C 58.9 °F /  14.9 °C 30.06in /  1017.8hPa WSW 2mph /  3.2km/h 2mph /  3.2km/h 81% 0.00in /  0mm 0 W/m2
01:40 64.2 °F /  17.9 °C 58.9 °F /  14.9 °C 30.06in /  1017.8hPa Calm   2mph /  3.2km/h 83% 0.00in /  0mm 0 W/m2
01:50 64 °F /  17.8 °C 58.7 °F /  14.8 °C 30.06in /  1017.8hPa Calm   3mph /  4.8km/h 83% 0.00in /  0mm 0 W/m2
02:00 63.5 °F /  17.5 °C 58.6 °F /  14.8 °C 30.06in /  1017.8hPa Calm   2mph /  3.2km/h 84% 0.00in /  0mm 0 W/m2
02:10 63 °F /  17.2 °C 58 °F /  14.4 °C 30.06in /  1017.8hPa West 1mph /  1.6km/h 3mph /  4.8km/h 84% 0.00in /  0mm 0 W/m2
02:20 62.6 °F /  17 °C 58 °F /  14.4 °C 30.06in /  1017.8hPa NW 1mph /  1.6km/h 2mph /  3.2km/h 85% 0.00in /  0mm 0 W/m2
02:30 62.2 °F /  16.8 °C 58 °F /  14.4 °C 30.06in /  1017.8hPa Calm   2mph /  3.2km/h 86% 0.00in /  0mm 0 W/m2
02:40 61.9 °F /  16.6 °C 57.6 °F /  14.2 °C 30.06in /  1017.8hPa WSW 1mph /  1.6km/h 2mph /  3.2km/h 86% 0.00in /  0mm 0 W/m2
02:50 61.5 °F /  16.4 °C 57.9 °F /  14.4 °C 30.06in /  1017.8hPa WNW 1mph /  1.6km/h 2mph /  3.2km/h 88% 0.00in /  0mm 0 W/m2
03:00 61.5 °F /  16.4 °C 57.9 °F /  14.4 °C 30.06in /  1017.8hPa West 1mph /  1.6km/h 2mph /  3.2km/h 88% 0.00in /  0mm 0 W/m2
03:10 61.2 °F /  16.2 °C 57.6 °F /  14.2 °C 30.06in /  1017.8hPa West 1mph /  1.6km/h 3mph /  4.8km/h 88% 0.00in /  0mm 0 W/m2
03:20 61 °F /  16.1 °C 57.4 °F /  14.1 °C 30.06in /  1017.8hPa West 3mph /  4.8km/h 5mph /  8km/h 88% 0.00in /  0mm 0 W/m2
03:30 61 °F /  16.1 °C 57.4 °F /  14.1 °C 30.06in /  1017.8hPa WSW 1mph /  1.6km/h 4mph /  6.4km/h 88% 0.00in /  0mm 0 W/m2
03:40 60.8 °F /  16 °C 57.5 °F /  14.2 °C 30.06in /  1017.8hPa WNW 2mph /  3.2km/h 3mph /  4.8km/h 89% 0.00in /  0mm 0 W/m2
04:10 60.2 °F /  15.7 °C 57.3 °F /  14.1 °C 30.06in /  1017.8hPa NW 1mph /  1.6km/h 2mph /  3.2km/h 90% 0.00in /  0mm 0 W/m2
04:30 59.4 °F /  15.2 °C 56.4 °F /  13.6 °C 30.07in /  1018.2hPa WSW 2mph /  3.2km/h 2mph /  3.2km/h 90% 0.00in /  0mm 0 W/m2
04:40 59 °F /  15 °C 56.1 °F /  13.4 °C 30.06in /  1017.8hPa West 2mph /  3.2km/h 4mph /  6.4km/h 90% 0.00in /  0mm 0 W/m2
04:50 58.8 °F /  14.9 °C 56.2 °F /  13.4 °C 30.06in /  1017.8hPa Calm   5mph /  8km/h 91% 0.00in /  0mm 0 W/m2
05:00 58.8 °F /  14.9 °C 56.2 °F /  13.4 °C 30.07in /  1018.2hPa Calm   2mph /  3.2km/h 91% 0.00in /  0mm 0 W/m2
05:10 58.6 °F /  14.8 °C 56 °F /  13.3 °C 30.07in /  1018.2hPa Calm   2mph /  3.2km/h 91% 0.00in /  0mm 0 W/m2
05:20 58.5 °F /  14.7 °C 55.8 °F /  13.2 °C 30.07in /  1018.2hPa WNW 1mph /  1.6km/h 2mph /  3.2km/h 91% 0.00in /  0mm 0 W/m2
05:30 58.1 °F /  14.5 °C 55.8 °F /  13.2 °C 30.07in /  1018.2hPa WSW 1mph /  1.6km/h 2mph /  3.2km/h 92% 0.00in /  0mm 6 W/m2
05:40 57.9 °F /  14.4 °C 55.9 °F /  13.3 °C 30.07in /  1018.2hPa WSW 2mph /  3.2km/h 3mph /  4.8km/h 93% 0.00in /  0mm 13 W/m2
05:50 57.7 °F /  14.3 °C 55.7 °F /  13.2 °C 30.07in /  1018.2hPa WNW 1mph /  1.6km/h 4mph /  6.4km/h 93% 0.00in /  0mm 19 W/m2
06:00 57.7 °F /  14.3 °C 56 °F /  13.3 °C 30.08in /  1018.5hPa WNW 1mph /  1.6km/h 2mph /  3.2km/h 94% 0.00in /  0mm 31 W/m2
06:10 57.9 °F /  14.4 °C 56.2 °F /  13.4 °C 30.08in /  1018.5hPa Calm   2mph /  3.2km/h 94% 0.00in /  0mm 49 W/m2
06:20 58 °F /  14.4 °C 56 °F /  13.3 °C 30.08in /  1018.5hPa Calm   2mph /  3.2km/h 93% 0.00in /  0mm 71 W/m2
06:30 57.9 °F /  14.4 °C 56.2 °F /  13.4 °C 30.08in /  1018.5hPa WSW 1mph /  1.6km/h 2mph /  3.2km/h 94% 0.00in /  0mm 89 W/m2
06:40 58.2 °F /  14.6 °C 56.4 °F /  13.6 °C 30.08in /  1018.5hPa WNW 1mph /  1.6km/h 2mph /  3.2km/h 94% 0.00in /  0mm 116 W/m2
07:00 59 °F /  15 °C 57 °F /  13.9 °C 30.09in /  1018.8hPa WNW 1mph /  1.6km/h 2mph /  3.2km/h 93% 0.00in /  0mm 175 W/m2
07:10 59.5 °F /  15.3 °C 56.9 °F /  13.8 °C 30.09in /  1018.8hPa Calm   2mph /  3.2km/h 91% 0.00in /  0mm 202 W/m2
07:20 60.1 °F /  15.6 °C 57.5 °F /  14.2 °C 30.09in /  1018.8hPa Calm   1mph /  1.6km/h 91% 0.00in /  0mm 231 W/m2
07:30 61.2 °F /  16.2 °C 58.3 °F /  14.6 °C 30.09in /  1018.8hPa Calm   2mph /  3.2km/h 90% 0.00in /  0mm 263 W/m2
07:40 62.1 °F /  16.7 °C 58.5 °F /  14.7 °C 30.10in /  1019.2hPa Calm   1mph /  1.6km/h 88% 0.00in /  0mm 298 W/m2
07:54 63.5 °F /  17.5 °C 59.2 °F /  15.1 °C 30.10in /  1019.2hPa West 3.4mph /  5.5km/h 2mph /  3.2km/h 86.1% 0.00in /  0mm 349 W/m2
07:59 63.8 °F /  17.7 °C 59.3 °F /  15.2 °C 30.10in /  1019.2hPa WSW 2.2mph /  3.5km/h 1.3mph /  2.1km/h 85.3% 0.00in /  0mm 371 W/m2
08:04 64.2 °F /  17.9 °C 59.5 °F /  15.3 °C 30.10in /  1019.2hPa West 2.8mph /  4.5km/h 2mph /  3.2km/h 84.8% 0.00in /  0mm 388 W/m2
08:09 64.7 °F /  18.2 °C 59.7 °F /  15.4 °C 30.10in /  1019.2hPa West 2.2mph /  3.5km/h 1.1mph /  1.8km/h 84% 0.00in /  0mm 406 W/m2
08:14 65.3 °F /  18.5 °C 60.1 °F /  15.6 °C 30.10in /  1019.2hPa WSW 2.2mph /  3.5km/h 3mph /  4.8km/h 83.3% 0.00in /  0mm 424 W/m2
08:19 65.7 °F /  18.7 °C 59.9 °F /  15.5 °C 30.10in /  1019.2hPa WSW 2.7mph /  4.3km/h 0.9mph /  1.4km/h 81.6% 0.00in /  0mm 442 W/m2
08:24 66.1 °F /  18.9 °C 60.1 °F /  15.6 °C 30.10in /  1019.2hPa WSW 2.2mph /  3.5km/h 3mph /  4.8km/h 80.8% 0.00in /  0mm 460 W/m2
08:29 67.1 °F /  19.5 °C 60.8 °F /  16 °C 30.10in /  1019.2hPa SSW 1.8mph /  2.9km/h 1.3mph /  2.1km/h 80% 0.00in /  0mm 476 W/m2
08:34 68.1 °F /  20.1 °C 61.3 °F /  16.3 °C 30.10in /  1019.2hPa South 2.4mph /  3.9km/h 2mph /  3.2km/h 78.8% 0.00in /  0mm 492 W/m2
08:39 69.4 °F /  20.8 °C 62 °F /  16.7 °C 30.10in /  1019.2hPa South 3.4mph /  5.5km/h 1.6mph /  2.6km/h 77.2% 0.00in /  0mm 510 W/m2
08:44 70.7 °F /  21.5 °C 61.8 °F /  16.6 °C 30.10in /  1019.2hPa South 2.3mph /  3.7km/h 3mph /  4.8km/h 73.4% 0.00in /  0mm 525 W/m2
08:49 71.6 °F /  22 °C 62.7 °F /  17.1 °C 30.10in /  1019.2hPa SSW 3mph /  4.8km/h 2.2mph /  3.5km/h 73.6% 0.00in /  0mm 542 W/m2
08:54 72.6 °F /  22.6 °C 62.7 °F /  17.1 °C 30.09in /  1018.8hPa SSW 3.2mph /  5.1km/h 3mph /  4.8km/h 71.1% 0.00in /  0mm 557 W/m2
08:59 73.4 °F /  23 °C 62.7 °F /  17.1 °C 30.09in /  1018.8hPa SSW 2.6mph /  4.2km/h 2.5mph /  4km/h 69.1% 0.00in /  0mm 577 W/m2
09:04 74 °F /  23.3 °C 63.2 °F /  17.3 °C 30.09in /  1018.8hPa SSW 2.4mph /  3.9km/h 4mph /  6.4km/h 69% 0.00in /  0mm 588 W/m2
09:09 74.8 °F /  23.8 °C 63.4 °F /  17.4 °C 30.09in /  1018.8hPa SW 3.3mph /  5.3km/h 2.9mph /  4.7km/h 67.7% 0.00in /  0mm 603 W/m2
09:14 75.2 °F /  24 °C 63.6 °F /  17.6 °C 30.09in /  1018.8hPa South 4.4mph /  7.1km/h 4mph /  6.4km/h 67.3% 0.00in /  0mm 619 W/m2
09:19 75.6 °F /  24.2 °C 63.3 °F /  17.4 °C 30.09in /  1018.8hPa ESE 4.2mph /  6.8km/h 2.2mph /  3.5km/h 65.8% 0.00in /  0mm 634 W/m2
09:24 75.8 °F /  24.3 °C 63.2 °F /  17.3 °C 30.09in /  1018.8hPa NE 6.9mph /  11.1km/h 6.3mph /  10.1km/h 65% 0.00in /  0mm 650 W/m2
09:29 76.4 °F /  24.7 °C 63.4 °F /  17.4 °C 30.09in /  1018.8hPa NE 6.3mph /  10.1km/h 4.9mph /  7.9km/h 64.3% 0.00in /  0mm 665 W/m2
09:34 77 °F /  25 °C 63.9 °F /  17.7 °C 30.09in /  1018.8hPa NE 5.9mph /  9.5km/h 9mph /  14.5km/h 64.1% 0.00in /  0mm 678 W/m2
09:39 77.6 °F /  25.3 °C 64 °F /  17.8 °C 30.09in /  1018.8hPa NE 5.3mph /  8.5km/h 4.5mph /  7.2km/h 63.1% 0.00in /  0mm 694 W/m2
09:44 78.4 °F /  25.8 °C 64.5 °F /  18.1 °C 30.09in /  1018.8hPa NNE 6.7mph /  10.8km/h 4.2mph /  6.8km/h 62.5% 0.00in /  0mm 706 W/m2
09:49 79 °F /  26.1 °C 63.6 °F /  17.6 °C 30.09in /  1018.8hPa North 7.3mph /  11.7km/h 7.2mph /  11.6km/h 59.3% 0.00in /  0mm 723 W/m2
09:54 79.5 °F /  26.4 °C 64.1 °F /  17.8 °C 30.09in /  1018.8hPa NNE 5.7mph /  9.2km/h 12mph /  19.3km/h 59.5% 0.00in /  0mm 734 W/m2
09:59 80.1 °F /  26.7 °C 64.2 °F /  17.9 °C 30.09in /  1018.8hPa NNE 7.7mph /  12.4km/h 6.3mph /  10.1km/h 58.5% 0.00in /  0mm 748 W/m2
10:04 80.2 °F /  26.8 °C 64 °F /  17.8 °C 30.08in /  1018.5hPa NE 7.5mph /  12.1km/h 9mph /  14.5km/h 57.8% 0.00in /  0mm 761 W/m2
10:09 80.5 °F /  26.9 °C 64.3 °F /  17.9 °C 30.08in /  1018.5hPa NE 7.3mph /  11.7km/h 5.1mph /  8.2km/h 57.9% 0.00in /  0mm 773 W/m2
10:14 81.1 °F /  27.3 °C 64.8 °F /  18.2 °C 30.08in /  1018.5hPa NNE 8mph /  12.9km/h 10mph /  16.1km/h 57.8% 0.00in /  0mm 788 W/m2
10:19 81.7 °F /  27.6 °C 65.2 °F /  18.4 °C 30.08in /  1018.5hPa NNE 7.3mph /  11.7km/h 4.9mph /  7.9km/h 57.6% 0.00in /  0mm 797 W/m2
10:24 81.9 °F /  27.7 °C 63.7 °F /  17.6 °C 30.08in /  1018.5hPa NNE 9.4mph /  15.1km/h 10mph /  16.1km/h 54.3% 0.00in /  0mm 814 W/m2
10:29 81.9 °F /  27.7 °C 64.2 °F /  17.9 °C 30.09in /  1018.8hPa NE 6.6mph /  10.6km/h 5.1mph /  8.2km/h 55% 0.00in /  0mm 823 W/m2
10:34 82.5 °F /  28.1 °C 64.5 °F /  18.1 °C 30.09in /  1018.8hPa NE 9.3mph /  15km/h 13mph /  20.9km/h 54.8% 0.00in /  0mm 830 W/m2
10:39 82.9 °F /  28.3 °C 64.6 °F /  18.1 °C 30.08in /  1018.5hPa North 5.9mph /  9.5km/h 4.2mph /  6.8km/h 54.2% 0.00in /  0mm 843 W/m2
10:44 83.2 °F /  28.4 °C 64.9 °F /  18.3 °C 30.08in /  1018.5hPa North 6.8mph /  10.9km/h 11mph /  17.7km/h 54% 0.00in /  0mm 848 W/m2
10:49 83.4 °F /  28.6 °C 64.9 °F /  18.3 °C 30.08in /  1018.5hPa North 5.8mph /  9.3km/h 4mph /  6.4km/h 53.9% 0.00in /  0mm 759 W/m2
10:54 83.6 °F /  28.7 °C 65.3 °F /  18.5 °C 30.08in /  1018.5hPa NNE 5mph /  8km/h 8mph /  12.9km/h 54.1% 0.00in /  0mm 826 W/m2
10:59 83.9 °F /  28.8 °C 65.2 °F /  18.4 °C 30.08in /  1018.5hPa NNE 6.6mph /  10.6km/h 4.7mph /  7.6km/h 53.4% 0.00in /  0mm 880 W/m2
11:04 84.1 °F /  28.9 °C 65 °F /  18.3 °C 30.08in /  1018.5hPa NNE 8.9mph /  14.3km/h 9mph /  14.5km/h 52.8% 0.00in /  0mm 887 W/m2
11:09 84.2 °F /  29 °C 65 °F /  18.3 °C 30.08in /  1018.5hPa NNE 8.8mph /  14.2km/h 5.6mph /  9km/h 52.6% 0.00in /  0mm 889 W/m2
11:14 84.6 °F /  29.2 °C 65.7 °F /  18.7 °C 30.08in /  1018.5hPa North 6.1mph /  9.8km/h 10mph /  16.1km/h 53.2% 0.00in /  0mm 673 W/m2
11:19 85.1 °F /  29.5 °C 66 °F /  18.9 °C 30.08in /  1018.5hPa North 7.5mph /  12.1km/h 5.8mph /  9.3km/h 52.9% 0.00in /  0mm 777 W/m2
11:24 85.3 °F /  29.6 °C 65.8 °F /  18.8 °C 30.08in /  1018.5hPa North 8mph /  12.9km/h 9mph /  14.5km/h 52.1% 0.00in /  0mm 308 W/m2
11:29 85.5 °F /  29.7 °C 65.7 °F /  18.7 °C 30.08in /  1018.5hPa NNE 6.4mph /  10.3km/h 4.7mph /  7.6km/h 51.8% 0.00in /  0mm 337 W/m2
11:34 85.8 °F /  29.9 °C 65.6 °F /  18.7 °C 30.08in /  1018.5hPa NE 6.9mph /  11.1km/h 10mph /  16.1km/h 51.1% 0.00in /  0mm 592 W/m2
11:39 86.2 °F /  30.1 °C 65 °F /  18.3 °C 30.08in /  1018.5hPa NNE 6.9mph /  11.1km/h 4.7mph /  7.6km/h 49.3% 0.00in /  0mm 839 W/m2
11:44 86.5 °F /  30.3 °C 65.8 °F /  18.8 °C 30.08in /  1018.5hPa North 6.1mph /  9.8km/h 10mph /  16.1km/h 50.3% 0.00in /  0mm 941 W/m2
11:49 86.8 °F /  30.4 °C 65.1 °F /  18.4 °C 30.07in /  1018.2hPa North 6.9mph /  11.1km/h 4.9mph /  7.9km/h 48.6% 0.00in /  0mm 950 W/m2
11:54 86.8 °F /  30.4 °C 64.8 °F /  18.2 °C 30.07in /  1018.2hPa North 5.9mph /  9.5km/h 8mph /  12.9km/h 48% 0.00in /  0mm 955 W/m2
11:59 86.8 °F /  30.4 °C 65.4 °F /  18.6 °C 30.07in /  1018.2hPa NNE 5.4mph /  8.7km/h 3.8mph /  6.1km/h 49.1% 0.00in /  0mm 961 W/m2
12:04 87.2 °F /  30.7 °C 65.7 °F /  18.7 °C 30.07in /  1018.2hPa NE 7.2mph /  11.6km/h 8mph /  12.9km/h 48.9% 0.00in /  0mm 966 W/m2
12:09 87.5 °F /  30.8 °C 65.5 °F /  18.6 °C 30.06in /  1017.8hPa NNE 5.6mph /  9km/h 4.2mph /  6.8km/h 48.1% 0.00in /  0mm 967 W/m2
12:14 88 °F /  31.1 °C 65.8 °F /  18.8 °C 30.06in /  1017.8hPa NNE 6.4mph /  10.3km/h 8mph /  12.9km/h 48% 0.00in /  0mm 967 W/m2
12:19 88.2 °F /  31.2 °C 65.9 °F /  18.8 °C 30.06in /  1017.8hPa NNE 7.6mph /  12.2km/h 5.6mph /  9km/h 47.7% 0.00in /  0mm 970 W/m2
12:24 88.4 °F /  31.3 °C 65.7 °F /  18.7 °C 30.06in /  1017.8hPa NNE 10.2mph /  16.4km/h 10mph /  16.1km/h 47.1% 0.00in /  0mm 973 W/m2
12:29 88.5 °F /  31.4 °C 66.1 °F /  18.9 °C 30.06in /  1017.8hPa NNE 9.1mph /  14.6km/h 4mph /  6.4km/h 47.7% 0.00in /  0mm 973 W/m2
12:34 88.8 °F /  31.6 °C 65.3 °F /  18.5 °C 30.06in /  1017.8hPa NNE 12.3mph /  19.8km/h 15mph /  24.1km/h 46% 0.00in /  0mm 977 W/m2
12:39 88.9 °F /  31.6 °C 65.9 °F /  18.8 °C 30.06in /  1017.8hPa NNE 8mph /  12.9km/h 5.6mph /  9km/h 46.9% 0.00in /  0mm 979 W/m2
12:44 89.2 °F /  31.8 °C 65.3 °F /  18.5 °C 30.06in /  1017.8hPa NNE 9.3mph /  15km/h 15mph /  24.1km/h 45.4% 0.00in /  0mm 980 W/m2
12:49 89.6 °F /  32 °C 66.2 °F /  19 °C 30.06in /  1017.8hPa NNE 9.5mph /  15.3km/h 6.9mph /  11.1km/h 46.3% 0.00in /  0mm 981 W/m2
12:54 89.8 °F /  32.1 °C 65.6 °F /  18.7 °C 30.06in /  1017.8hPa NNE 8.8mph /  14.2km/h 7.2mph /  11.6km/h 45% 0.00in /  0mm 985 W/m2
12:59 89.9 °F /  32.2 °C 65.2 °F /  18.4 °C 30.06in /  1017.8hPa NNE 10.3mph /  16.6km/h 6.9mph /  11.1km/h 44.3% 0.00in /  0mm 986 W/m2
13:04 89.9 °F /  32.2 °C 65.6 °F /  18.7 °C 30.05in /  1017.5hPa NNE 9mph /  14.5km/h 12mph /  19.3km/h 44.7% 0.00in /  0mm 989 W/m2
13:09 90.4 °F /  32.4 °C 65.7 °F /  18.7 °C 30.05in /  1017.5hPa NNE 7mph /  11.3km/h 4.7mph /  7.6km/h 44.3% 0.00in /  0mm 1000 W/m2
13:14 90.8 °F /  32.7 °C 65.6 °F /  18.7 °C 30.05in /  1017.5hPa NNE 10.2mph /  16.4km/h 13mph /  20.9km/h 43.6% 0.00in /  0mm 998 W/m2
13:19 91 °F /  32.8 °C 66 °F /  18.9 °C 30.05in /  1017.5hPa North 8.4mph /  13.5km/h 7.2mph /  11.6km/h 43.9% 0.00in /  0mm 1006 W/m2
13:24 91.3 °F /  32.9 °C 65.1 °F /  18.4 °C 30.05in /  1017.5hPa North 8.8mph /  14.2km/h 13mph /  20.9km/h 42.1% 0.00in /  0mm 1015 W/m2
13:29 91.4 °F /  33 °C 63 °F /  17.2 °C 30.05in /  1017.5hPa North 8.1mph /  13km/h 5.6mph /  9km/h 39% 0.00in /  0mm 1016 W/m2
13:34 91.7 °F /  33.2 °C 63 °F /  17.2 °C 30.04in /  1017.2hPa North 9.8mph /  15.8km/h 10mph /  16.1km/h 38.7% 0.00in /  0mm 1004 W/m2
13:39 92 °F /  33.3 °C 61.2 °F /  16.2 °C 30.04in /  1017.2hPa NNE 11.6mph /  18.7km/h 8.3mph /  13.4km/h 36% 0.00in /  0mm 966 W/m2
13:44 92 °F /  33.3 °C 59.4 °F /  15.2 °C 30.04in /  1017.2hPa NNE 12mph /  19.3km/h 13mph /  20.9km/h 33.7% 0.00in /  0mm 966 W/m2
13:49 92 °F /  33.3 °C 61.3 °F /  16.3 °C 30.04in /  1017.2hPa NNE 9.7mph /  15.6km/h 6.9mph /  11.1km/h 36.1% 0.00in /  0mm 957 W/m2
13:54 91.8 °F /  33.2 °C 62 °F /  16.7 °C 30.04in /  1017.2hPa NNE 8mph /  12.9km/h 13mph /  20.9km/h 37.2% 0.00in /  0mm 937 W/m2
13:59 91.9 °F /  33.3 °C 61.5 °F /  16.4 °C 30.04in /  1017.2hPa NNE 6.8mph /  10.9km/h 4.5mph /  7.2km/h 36.4% 0.00in /  0mm 925 W/m2
14:04 92.3 °F /  33.5 °C 61.7 °F /  16.5 °C 30.04in /  1017.2hPa NNE 6.7mph /  10.8km/h 12mph /  19.3km/h 36.2% 0.00in /  0mm 915 W/m2
14:09 92.5 °F /  33.6 °C 61.2 °F /  16.2 °C 30.04in /  1017.2hPa NNE 10.2mph /  16.4km/h 10.7mph /  17.2km/h 35.4% 0.00in /  0mm 905 W/m2
14:14 92.5 °F /  33.6 °C 60.4 °F /  15.8 °C 30.03in /  1016.8hPa NNE 9.6mph /  15.4km/h 16mph /  25.7km/h 34.5% 0.00in /  0mm 905 W/m2
14:19 92.6 °F /  33.7 °C 61.9 °F /  16.6 °C 30.03in /  1016.8hPa NE 6.5mph /  10.5km/h 3.6mph /  5.8km/h 36.2% 0.00in /  0mm 896 W/m2
14:24 92.8 °F /  33.8 °C 60.9 °F /  16.1 °C 30.03in /  1016.8hPa NE 8.5mph /  13.7km/h 6mph /  9.7km/h 34.7% 0.00in /  0mm 879 W/m2
14:29 93 °F /  33.9 °C 61 °F /  16.1 °C 30.03in /  1016.8hPa NNE 7.4mph /  11.9km/h 4.7mph /  7.6km/h 34.6% 0.00in /  0mm 874 W/m2
14:34 92.7 °F /  33.7 °C 60.5 °F /  15.8 °C 30.03in /  1016.8hPa NNE 10.5mph /  16.9km/h 9mph /  14.5km/h 34.3% 0.00in /  0mm 864 W/m2
14:39 92.7 °F /  33.7 °C 60.6 °F /  15.9 °C 30.03in /  1016.8hPa North 5.5mph /  8.9km/h 5.4mph /  8.7km/h 34.5% 0.00in /  0mm 858 W/m2
14:44 92.7 °F /  33.7 °C 60.4 °F /  15.8 °C 30.03in /  1016.8hPa NNE 7.1mph /  11.4km/h 4.9mph /  7.9km/h 34.2% 0.00in /  0mm 845 W/m2
14:49 92.6 °F /  33.7 °C 62 °F /  16.7 °C 30.03in /  1016.8hPa NNE 7.9mph /  12.7km/h 3.1mph /  5km/h 36.3% 0.00in /  0mm 824 W/m2
14:54 92.9 °F /  33.8 °C 61.3 °F /  16.3 °C 30.02in /  1016.5hPa NNE 8.8mph /  14.2km/h 10mph /  16.1km/h 35.1% 0.00in /  0mm 819 W/m2
14:59 93.3 °F /  34.1 °C 61.8 °F /  16.6 °C 30.02in /  1016.5hPa North 10.2mph /  16.4km/h 5.6mph /  9km/h 35.3% 0.00in /  0mm 804 W/m2
15:04 93.5 °F /  34.2 °C 61.1 °F /  16.2 °C 30.02in /  1016.5hPa NNE 9mph /  14.5km/h 13mph /  20.9km/h 34.3% 0.00in /  0mm 794 W/m2
15:09 93.4 °F /  34.1 °C 61.1 °F /  16.2 °C 30.02in /  1016.5hPa NNE 8mph /  12.9km/h 5.8mph /  9.3km/h 34.3% 0.00in /  0mm 791 W/m2
15:14 93.5 °F /  34.2 °C 61.3 °F /  16.3 °C 30.02in /  1016.5hPa NNE 7mph /  11.3km/h 14mph /  22.5km/h 34.5% 0.00in /  0mm 778 W/m2
15:19 93.6 °F /  34.2 °C 61.1 °F /  16.2 °C 30.02in /  1016.5hPa NNE 8.3mph /  13.4km/h 6mph /  9.7km/h 34.1% 0.00in /  0mm 758 W/m2
15:24 93.6 °F /  34.2 °C 61 °F /  16.1 °C 30.02in /  1016.5hPa NNE 8.7mph /  14km/h 12mph /  19.3km/h 34% 0.00in /  0mm 738 W/m2
15:29 93.6 °F /  34.2 °C 61.1 °F /  16.2 °C 30.02in /  1016.5hPa North 7.8mph /  12.6km/h 6.7mph /  10.8km/h 34% 0.00in /  0mm 738 W/m2
15:34 93.3 °F /  34.1 °C 60.5 °F /  15.8 °C 30.02in /  1016.5hPa NNE 9mph /  14.5km/h 5.6mph /  9km/h 33.7% 0.00in /  0mm 715 W/m2
15:39 93 °F /  33.9 °C 60.7 °F /  15.9 °C 30.02in /  1016.5hPa NNE 11.8mph /  19km/h 7.8mph /  12.6km/h 34.3% 0.00in /  0mm 671 W/m2
15:44 92.7 °F /  33.7 °C 60.7 °F /  15.9 °C 30.02in /  1016.5hPa North 9.1mph /  14.6km/h 13mph /  20.9km/h 34.6% 0.00in /  0mm 405 W/m2
15:49 92.1 °F /  33.4 °C 60.5 °F /  15.8 °C 30.01in /  1016.1hPa North 5.4mph /  8.7km/h 2.9mph /  4.7km/h 35% 0.00in /  0mm 681 W/m2
15:54 92 °F /  33.3 °C 61.6 °F /  16.4 °C 30.01in /  1016.1hPa North 6.6mph /  10.6km/h 10mph /  16.1km/h 36.5% 0.00in /  0mm 667 W/m2
15:59 92.4 °F /  33.6 °C 61.7 °F /  16.5 °C 30.01in /  1016.1hPa North 5mph /  8km/h 2.9mph /  4.7km/h 36.3% 0.00in /  0mm 662 W/m2
16:04 92.4 °F /  33.6 °C 61.7 °F /  16.5 °C 30.01in /  1016.1hPa NNW 6.2mph /  10km/h 10mph /  16.1km/h 36.1% 0.00in /  0mm 647 W/m2
16:09 92.2 °F /  33.4 °C 62.1 °F /  16.7 °C 30.01in /  1016.1hPa NNW 3.9mph /  6.3km/h 2.5mph /  4km/h 36.8% 0.00in /  0mm 629 W/m2
16:14 92.3 °F /  33.5 °C 62.4 °F /  16.9 °C 30.01in /  1016.1hPa NNW 4.8mph /  7.7km/h 7mph /  11.3km/h 37.2% 0.00in /  0mm 628 W/m2
16:19 92.7 °F /  33.7 °C 62.6 °F /  17 °C 30.01in /  1016.1hPa North 7mph /  11.3km/h 4.2mph /  6.8km/h 37% 0.00in /  0mm 621 W/m2
16:24 92.8 °F /  33.8 °C 62.5 °F /  16.9 °C 30.01in /  1016.1hPa NNE 8.4mph /  13.5km/h 7mph /  11.3km/h 36.7% 0.00in /  0mm 590 W/m2
16:29 92.5 °F /  33.6 °C 61.6 °F /  16.4 °C 30.01in /  1016.1hPa NNE 8.2mph /  13.2km/h 5.6mph /  9km/h 36% 0.00in /  0mm 569 W/m2
16:34 92.4 °F /  33.6 °C 62.5 °F /  16.9 °C 30.01in /  1016.1hPa NE 10.2mph /  16.4km/h 11mph /  17.7km/h 37.2% 0.00in /  0mm 564 W/m2
16:39 91.9 °F /  33.3 °C 62.1 °F /  16.7 °C 30.01in /  1016.1hPa NNE 8.7mph /  14km/h 5.6mph /  9km/h 37.3% 0.00in /  0mm 353 W/m2
16:44 91.4 °F /  33 °C 62.2 °F /  16.8 °C 30.01in /  1016.1hPa NNE 7.3mph /  11.7km/h 12mph /  19.3km/h 38% 0.00in /  0mm 165 W/m2
16:49 90.7 °F /  32.6 °C 61.6 °F /  16.4 °C 30.01in /  1016.1hPa North 6.1mph /  9.8km/h 3.6mph /  5.8km/h 38% 0.00in /  0mm 469 W/m2
16:54 90.7 °F /  32.6 °C 61.9 °F /  16.6 °C 30.01in /  1016.1hPa North 8mph /  12.9km/h 8mph /  12.9km/h 38.5% 0.00in /  0mm 443 W/m2
16:59 90.3 °F /  32.4 °C 61.5 °F /  16.4 °C 30.01in /  1016.1hPa North 9.6mph /  15.4km/h 5.6mph /  9km/h 38.3% 0.00in /  0mm 410 W/m2
17:04 90.1 °F /  32.3 °C 62 °F /  16.7 °C 30.01in /  1016.1hPa North 6.1mph /  9.8km/h 12mph /  19.3km/h 39.2% 0.00in /  0mm 410 W/m2
17:09 90.4 °F /  32.4 °C 62 °F /  16.7 °C 30.01in /  1016.1hPa North 6.3mph /  10.1km/h 4.5mph /  7.2km/h 38.9% 0.00in /  0mm 399 W/m2
17:14 90.5 °F /  32.5 °C 62 °F /  16.7 °C 30.01in /  1016.1hPa North 5mph /  8km/h 9mph /  14.5km/h 38.8% 0.00in /  0mm 270 W/m2
17:19 90.2 °F /  32.3 °C 61.9 °F /  16.6 °C 30.01in /  1016.1hPa North 4.1mph /  6.6km/h 2.2mph /  3.5km/h 39% 0.00in /  0mm 142 W/m2
17:23 89.9 °F /  32.2 °C 61.6 °F /  16.4 °C 30.01in /  1016.1hPa North 3.7mph /  6km/h 5mph /  8km/h 39% 0.00in /  0mm 114 W/m2
17:29 89.2 °F /  31.8 °C 61 °F /  16.1 °C 30.01in /  1016.1hPa North 6.5mph /  10.5km/h 4.5mph /  7.2km/h 39% 0.00in /  0mm 101 W/m2
17:34 88.8 °F /  31.6 °C 60.7 °F /  15.9 °C 30.00in /  1015.8hPa North 4.2mph /  6.8km/h 3.8mph /  6.1km/h 39% 0.00in /  0mm 90 W/m2
17:39 88.4 °F /  31.3 °C 61 °F /  16.1 °C 30.00in /  1015.8hPa North 4.8mph /  7.7km/h 3.8mph /  6.1km/h 40% 0.00in /  0mm 95 W/m2
17:44 88.1 °F /  31.2 °C 60.7 °F /  15.9 °C 30.00in /  1015.8hPa North 5mph /  8km/h 7mph /  11.3km/h 40% 0.00in /  0mm 132 W/m2
17:49 87.8 °F /  31 °C 60.5 °F /  15.8 °C 30.00in /  1015.8hPa NNW 4.4mph /  7.1km/h 3.1mph /  5km/h 40% 0.00in /  0mm 166 W/m2
17:54 87.6 °F /  30.9 °C 60.3 °F /  15.7 °C 30.00in /  1015.8hPa NNW 5.5mph /  8.9km/h 5mph /  8km/h 40% 0.00in /  0mm 95 W/m2
17:59 87.3 °F /  30.7 °C 60.1 °F /  15.6 °C 30.01in /  1016.1hPa NNW 4.7mph /  7.6km/h 4.5mph /  7.2km/h 40% 0.00in /  0mm 106 W/m2
18:04 87.1 °F /  30.6 °C 60.5 °F /  15.8 °C 30.01in /  1016.1hPa NNW 5.4mph /  8.7km/h 7mph /  11.3km/h 41% 0.00in /  0mm 153 W/m2
18:09 87.1 °F /  30.6 °C 60.6 °F /  15.9 °C 30.01in /  1016.1hPa NNW 5.6mph /  9km/h 4.2mph /  6.8km/h 41.1% 0.00in /  0mm 121 W/m2
18:14 87.1 °F /  30.6 °C 59.8 °F /  15.4 °C 30.01in /  1016.1hPa NNW 4.4mph /  7.1km/h 6mph /  9.7km/h 40% 0.00in /  0mm 169 W/m2
18:19 87.3 °F /  30.7 °C 60.1 °F /  15.6 °C 30.01in /  1016.1hPa NNW 4.1mph /  6.6km/h 2.7mph /  4.3km/h 40% 0.00in /  0mm 168 W/m2
18:24 87.4 °F /  30.8 °C 60.2 °F /  15.7 °C 30.01in /  1016.1hPa NNW 4.1mph /  6.6km/h 5mph /  8km/h 40% 0.00in /  0mm 133 W/m2
18:29 87.4 °F /  30.8 °C 60.5 °F /  15.8 °C 30.01in /  1016.1hPa NNW 4.4mph /  7.1km/h 4mph /  6.4km/h 40.5% 0.00in /  0mm 134 W/m2
18:34 87.5 °F /  30.8 °C 60.3 °F /  15.7 °C 30.01in /  1016.1hPa NNW 3.6mph /  5.8km/h 6mph /  9.7km/h 40.1% 0.00in /  0mm 132 W/m2
18:39 87.6 °F /  30.9 °C 61.7 °F /  16.5 °C 30.01in /  1016.1hPa NNW 3.6mph /  5.8km/h 2mph /  3.2km/h 42% 0.00in /  0mm 122 W/m2
18:44 87.6 °F /  30.9 °C 61.3 °F /  16.3 °C 30.01in /  1016.1hPa NNW 5mph /  8km/h 4mph /  6.4km/h 41.5% 0.00in /  0mm 108 W/m2
18:49 87.5 °F /  30.8 °C 61.4 °F /  16.3 °C 30.01in /  1016.1hPa North 3.9mph /  6.3km/h 2.9mph /  4.7km/h 41.7% 0.00in /  0mm 102 W/m2
18:54 87.4 °F /  30.8 °C 61.5 °F /  16.4 °C 30.01in /  1016.1hPa North 3.4mph /  5.5km/h 6mph /  9.7km/h 42% 0.00in /  0mm 87 W/m2
18:59 87.2 °F /  30.7 °C 61.5 °F /  16.4 °C 30.01in /  1016.1hPa NNW 3.1mph /  5km/h 2.2mph /  3.5km/h 42.2% 0.00in /  0mm 75 W/m2
19:04 87 °F /  30.6 °C 61.6 °F /  16.4 °C 30.01in /  1016.1hPa NNW 3.1mph /  5km/h 4mph /  6.4km/h 42.7% 0.00in /  0mm 66 W/m2
19:09 86.9 °F /  30.5 °C 61.7 °F /  16.5 °C 30.01in /  1016.1hPa NNW 2.8mph /  4.5km/h 1.8mph /  2.9km/h 43% 0.00in /  0mm 59 W/m2
19:14 86.5 °F /  30.3 °C 61.2 °F /  16.2 °C 30.01in /  1016.1hPa NNW 3.6mph /  5.8km/h 2.2mph /  3.5km/h 42.7% 0.00in /  0mm 41 W/m2
19:19 86.3 °F /  30.2 °C 61.8 °F /  16.6 °C 30.01in /  1016.1hPa NW 2.8mph /  4.5km/h 1.8mph /  2.9km/h 44% 0.00in /  0mm 38 W/m2
19:24 85.6 °F /  29.8 °C 61.4 °F /  16.3 °C 30.01in /  1016.1hPa NW 3.7mph /  6km/h 5mph /  8km/h 44.3% 0.00in /  0mm 34 W/m2
19:29 85.2 °F /  29.6 °C 62.1 °F /  16.7 °C 30.01in /  1016.1hPa NW 2.7mph /  4.3km/h 1.6mph /  2.6km/h 46.1% 0.00in /  0mm 27 W/m2
19:34 84.5 °F /  29.2 °C 62.5 °F /  16.9 °C 30.01in /  1016.1hPa NW 2.3mph /  3.7km/h 5mph /  8km/h 47.8% 0.00in /  0mm 21 W/m2
19:39 83.3 °F /  28.5 °C 62.4 °F /  16.9 °C 30.01in /  1016.1hPa SSW 2.6mph /  4.2km/h 2.5mph /  4km/h 49.5% 0.00in /  0mm 16 W/m2
19:44 82.5 °F /  28.1 °C 62.6 °F /  17 °C 30.01in /  1016.1hPa South 2.1mph /  3.4km/h 3mph /  4.8km/h 51% 0.00in /  0mm 11 W/m2
19:49 82 °F /  27.8 °C 62.6 °F /  17 °C 30.01in /  1016.1hPa South 3.2mph /  5.1km/h 2.2mph /  3.5km/h 52% 0.00in /  0mm 8 W/m2
19:54 81.3 °F /  27.4 °C 62.4 °F /  16.9 °C 30.01in /  1016.1hPa SSW 3mph /  4.8km/h 3mph /  4.8km/h 52.8% 0.00in /  0mm 5 W/m2
19:59 80.7 °F /  27.1 °C 62 °F /  16.7 °C 30.01in /  1016.1hPa SSW 3.3mph /  5.3km/h 2.9mph /  4.7km/h 53% 0.00in /  0mm 3 W/m2
20:04 79.7 °F /  26.5 °C 61.5 °F /  16.4 °C 30.02in /  1016.5hPa SSW 2.9mph /  4.7km/h 4mph /  6.4km/h 54% 0.00in /  0mm 1 W/m2
20:09 79.3 °F /  26.3 °C 61.2 °F /  16.2 °C 30.02in /  1016.5hPa SSW 1.7mph /  2.7km/h 1.1mph /  1.8km/h 54% 0.00in /  0mm 0 W/m2
20:14 79.2 °F /  26.2 °C 61.5 °F /  16.4 °C 30.02in /  1016.5hPa SW 1.3mph /  2.1km/h 3mph /  4.8km/h 54.9% 0.00in /  0mm 0 W/m2
20:19 78.9 °F /  26.1 °C 61.6 °F /  16.4 °C 30.02in /  1016.5hPa WSW 2.2mph /  3.5km/h 1.3mph /  2.1km/h 55.4% 0.00in /  0mm 0 W/m2
20:24 78.4 °F /  25.8 °C 62 °F /  16.7 °C 30.02in /  1016.5hPa WSW 2.3mph /  3.7km/h 2mph /  3.2km/h 57.2% 0.00in /  0mm 0 W/m2
20:29 77.9 °F /  25.5 °C 62.1 °F /  16.7 °C 30.03in /  1016.8hPa WSW 2.3mph /  3.7km/h 1.6mph /  2.6km/h 58.4% 0.00in /  0mm 0 W/m2
20:34 77.5 °F /  25.3 °C 62 °F /  16.7 °C 30.03in /  1016.8hPa SW 2.3mph /  3.7km/h 2mph /  3.2km/h 59% 0.00in /  0mm 0 W/m2
20:39 77.1 °F /  25.1 °C 61.5 °F /  16.4 °C 30.03in /  1016.8hPa SSW 2.3mph /  3.7km/h 1.6mph /  2.6km/h 58.7% 0.00in /  0mm 0 W/m2
20:44 76.7 °F /  24.8 °C 61 °F /  16.1 °C 30.03in /  1016.8hPa SW 2.3mph /  3.7km/h 2mph /  3.2km/h 58.4% 0.00in /  0mm 0 W/m2
20:49 76.3 °F /  24.6 °C 60.7 °F /  15.9 °C 30.03in /  1016.8hPa SSW 2.4mph /  3.9km/h 1.8mph /  2.9km/h 58.7% 0.00in /  0mm 0 W/m2
20:54 75.8 °F /  24.3 °C 60 °F /  15.6 °C 30.03in /  1016.8hPa SSW 2.8mph /  4.5km/h 3mph /  4.8km/h 58% 0.00in /  0mm 0 W/m2
20:59 75.5 °F /  24.2 °C 59.9 °F /  15.5 °C 30.04in /  1017.2hPa SW 2.4mph /  3.9km/h 2mph /  3.2km/h 58.6% 0.00in /  0mm 0 W/m2
21:04 75.1 °F /  23.9 °C 59.8 °F /  15.4 °C 30.04in /  1017.2hPa SSW 2.4mph /  3.9km/h 3mph /  4.8km/h 59% 0.00in /  0mm 0 W/m2
21:09 74.8 °F /  23.8 °C 60.2 °F /  15.7 °C 30.04in /  1017.2hPa SSW 2.1mph /  3.4km/h 1.3mph /  2.1km/h 60.4% 0.00in /  0mm 0 W/m2
21:14 74.5 °F /  23.6 °C 60.7 °F /  15.9 °C 30.04in /  1017.2hPa SW 1.5mph /  2.4km/h 3mph /  4.8km/h 62.3% 0.00in /  0mm 0 W/m2
21:19 74 °F /  23.3 °C 60.6 °F /  15.9 °C 30.04in /  1017.2hPa SW 2.3mph /  3.7km/h 2mph /  3.2km/h 63% 0.00in /  0mm 0 W/m2
21:24 73.5 °F /  23.1 °C 60.2 °F /  15.7 °C 30.04in /  1017.2hPa SW 2mph /  3.2km/h 2mph /  3.2km/h 63.2% 0.00in /  0mm 0 W/m2
21:29 73 °F /  22.8 °C 60.1 °F /  15.6 °C 30.04in /  1017.2hPa WSW 1.9mph /  3.1km/h 1.8mph /  2.9km/h 64% 0.00in /  0mm 0 W/m2
21:34 72.6 °F /  22.6 °C 60.1 °F /  15.6 °C 30.04in /  1017.2hPa WSW 2.4mph /  3.9km/h 2.2mph /  3.5km/h 64.9% 0.00in /  0mm 0 W/m2
21:39 72 °F /  22.2 °C 59.8 °F /  15.4 °C 30.04in /  1017.2hPa WSW 2.6mph /  4.2km/h 2.2mph /  3.5km/h 65.5% 0.00in /  0mm 0 W/m2
21:44 71.7 °F /  22.1 °C 59.9 °F /  15.5 °C 30.04in /  1017.2hPa WSW 4mph /  6.4km/h 4mph /  6.4km/h 66.4% 0.00in /  0mm 0 W/m2
21:49 71.4 °F /  21.9 °C 59 °F /  15 °C 30.04in /  1017.2hPa West 4.9mph /  7.9km/h 3.6mph /  5.8km/h 65% 0.00in /  0mm 0 W/m2
21:54 71.2 °F /  21.8 °C 59.1 °F /  15.1 °C 30.04in /  1017.2hPa West 3.1mph /  5km/h 6mph /  9.7km/h 65.6% 0.00in /  0mm 0 W/m2
21:59 71 °F /  21.7 °C 59.4 °F /  15.2 °C 30.04in /  1017.2hPa West 3.6mph /  5.8km/h 2.7mph /  4.3km/h 67% 0.00in /  0mm 0 W/m2
22:04 70.6 °F /  21.4 °C 59.1 °F /  15.1 °C 30.04in /  1017.2hPa West 3.4mph /  5.5km/h 2.9mph /  4.7km/h 67% 0.00in /  0mm 0 W/m2
22:09 70.3 °F /  21.3 °C 59.1 °F /  15.1 °C 30.05in /  1017.5hPa WNW 1mph /  1.6km/h 0.4mph /  0.6km/h 67.7% 0.00in /  0mm 0 W/m2
22:14 70.1 °F /  21.2 °C 59 °F /  15 °C 30.05in /  1017.5hPa NW 1.3mph /  2.1km/h 1.1mph /  1.8km/h 68% 0.00in /  0mm 0 W/m2
22:19 69.8 °F /  21 °C 58.9 °F /  14.9 °C 30.04in /  1017.2hPa WNW 1.4mph /  2.3km/h 1.3mph /  2.1km/h 68.3% 0.00in /  0mm 0 W/m2
22:24 69.4 °F /  20.8 °C 58.7 °F /  14.8 °C 30.05in /  1017.5hPa NW 0.3mph /  0.5km/h 2mph /  3.2km/h 68.8% 0.00in /  0mm 0 W/m2
22:29 69 °F /  20.6 °C 58.6 °F /  14.8 °C 30.05in /  1017.5hPa NW 2.2mph /  3.5km/h 2mph /  3.2km/h 69.5% 0.00in /  0mm 0 W/m2
22:34 68.7 °F /  20.4 °C 58.5 °F /  14.7 °C 30.05in /  1017.5hPa WSW 1.5mph /  2.4km/h 1.6mph /  2.6km/h 69.9% 0.00in /  0mm 0 W/m2
22:39 68.5 °F /  20.3 °C 58.4 °F /  14.7 °C 30.05in /  1017.5hPa SW 0.8mph /  1.3km/h 0.9mph /  1.4km/h 70% 0.00in /  0mm 0 W/m2
22:44 68.4 °F /  20.2 °C 58 °F /  14.4 °C 30.05in /  1017.5hPa WNW 1.7mph /  2.7km/h 2mph /  3.2km/h 69.6% 0.00in /  0mm 0 W/m2
22:49 68.3 °F /  20.2 °C 58 °F /  14.4 °C 30.05in /  1017.5hPa WNW 2.4mph /  3.9km/h 2mph /  3.2km/h 69.8% 0.00in /  0mm 0 W/m2
22:54 68.1 °F /  20.1 °C 58.2 °F /  14.6 °C 30.05in /  1017.5hPa SW 2.3mph /  3.7km/h 3mph /  4.8km/h 70.5% 0.00in /  0mm 0 W/m2
22:59 67.8 °F /  19.9 °C 58.5 °F /  14.7 °C 30.05in /  1017.5hPa SW 1.3mph /  2.1km/h 3mph /  4.8km/h 72% 0.00in /  0mm 0 W/m2
23:04 67.6 °F /  19.8 °C 58.5 °F /  14.7 °C 30.05in /  1017.5hPa WSW 2mph /  3.2km/h 2mph /  3.2km/h 72.6% 0.00in /  0mm 0 W/m2
23:09 67.3 °F /  19.6 °C 58.4 °F /  14.7 °C 30.05in /  1017.5hPa West 2.3mph /  3.7km/h 2mph /  3.2km/h 73% 0.00in /  0mm 0 W/m2
23:14 66.9 °F /  19.4 °C 58 °F /  14.4 °C 30.05in /  1017.5hPa West 1.9mph /  3.1km/h 2mph /  3.2km/h 73% 0.00in /  0mm 0 W/m2
23:19 66.5 °F /  19.2 °C 57.9 °F /  14.4 °C 30.06in /  1017.8hPa WNW 1.5mph /  2.4km/h 2mph /  3.2km/h 73.9% 0.00in /  0mm 0 W/m2
23:24 66.1 °F /  18.9 °C 57.6 °F /  14.2 °C 30.06in /  1017.8hPa West 1.3mph /  2.1km/h 2mph /  3.2km/h 74.2% 0.00in /  0mm 0 W/m2
23:29 65.8 °F /  18.8 °C 57.7 °F /  14.3 °C 30.06in /  1017.8hPa WSW 0.7mph /  1.1km/h 1mph /  1.6km/h 75% 0.00in /  0mm 0 W/m2
23:34 65.6 °F /  18.7 °C 57.4 °F /  14.1 °C 30.06in /  1017.8hPa West 1.7mph /  2.7km/h 1.1mph /  1.8km/h 75% 0.00in /  0mm 0 W/m2
23:39 65.2 °F /  18.4 °C 57.8 °F /  14.3 °C 30.06in /  1017.8hPa NW 2.3mph /  3.7km/h 1.8mph /  2.9km/h 77% 0.00in /  0mm 0 W/m2
23:44 64.9 °F /  18.3 °C 57.6 °F /  14.2 °C 30.06in /  1017.8hPa NW 1.8mph /  2.9km/h 2mph /  3.2km/h 77% 0.00in /  0mm 0 W/m2
23:49 64.8 °F /  18.2 °C 57.4 °F /  14.1 °C 30.06in /  1017.8hPa NW 1mph /  1.6km/h 2mph /  3.2km/h 77% 0.00in /  0mm 0 W/m2
23:54 64.6 °F /  18.1 °C 57.2 °F /  14 °C 30.06in /  1017.8hPa NNW 1.6mph /  2.6km/h 2mph /  3.2km/h 77.1% 0.00in /  0mm 0 W/m2
23:59 64.2 °F /  17.9 °C 56.9 °F /  13.8 °C 30.06in /  1017.8hPa NW 1.7mph /  2.7km/h 2mph /  3.2km/h 77% 0.00in /  0mm 0 W/m2
Knjazevac, Serbia
Compliments of Weather Underground - 2 mb